sensor_id;sensor_type;location;lat;lon;timestamp;pressure;altitude;pressure_sealevel;temperature;humidity
10064;BME280;5071;52.360;13.134;2023-02-28T00:01:14;102650.81;;;-0.70;89.49
10064;BME280;5071;52.360;13.134;2023-02-28T00:06:18;102653.63;;;-0.67;89.40
10064;BME280;5071;52.360;13.134;2023-02-28T00:11:21;102658.13;;;-0.64;89.03
10064;BME280;5071;52.360;13.134;2023-02-28T00:16:23;102659.94;;;-0.63;89.13
10064;BME280;5071;52.360;13.134;2023-02-28T00:21:27;102663.94;;;-0.55;89.56
10064;BME280;5071;52.360;13.134;2023-02-28T00:26:29;102658.63;;;-0.56;89.23
10064;BME280;5071;52.360;13.134;2023-02-28T00:31:31;102656.09;;;-0.55;89.56
10064;BME280;5071;52.360;13.134;2023-02-28T00:36:34;102652.09;;;-0.50;89.45
10064;BME280;5071;52.360;13.134;2023-02-28T00:41:37;102659.22;;;-0.61;89.24
10064;BME280;5071;52.360;13.134;2023-02-28T00:46:39;102667.53;;;-0.53;89.72
10064;BME280;5071;52.360;13.134;2023-02-28T00:51:42;102660.72;;;-0.51;89.79
10064;BME280;5071;52.360;13.134;2023-02-28T00:56:45;102669.56;;;-0.49;89.76
10064;BME280;5071;52.360;13.134;2023-02-28T01:01:47;102670.25;;;-0.51;89.52
10064;BME280;5071;52.360;13.134;2023-02-28T01:06:51;102656.81;;;-0.57;89.75
10064;BME280;5071;52.360;13.134;2023-02-28T01:11:54;102659.06;;;-0.64;89.56
10064;BME280;5071;52.360;13.134;2023-02-28T01:16:56;102657.22;;;-0.65;90.30
10064;BME280;5071;52.360;13.134;2023-02-28T01:22:02;102653.84;;;-0.64;90.53
10064;BME280;5071;52.360;13.134;2023-02-28T01:27:04;102662.66;;;-0.62;90.50
10064;BME280;5071;52.360;13.134;2023-02-28T01:32:06;102657.22;;;-0.65;90.06
10064;BME280;5071;52.360;13.134;2023-02-28T01:37:09;102653.31;;;-0.58;90.68
10064;BME280;5071;52.360;13.134;2023-02-28T01:42:12;102642.41;;;-0.66;90.52
10064;BME280;5071;52.360;13.134;2023-02-28T01:47:14;102641.38;;;-0.68;90.75
10064;BME280;5071;52.360;13.134;2023-02-28T01:52:19;102643.09;;;-0.82;91.32
10064;BME280;5071;52.360;13.134;2023-02-28T01:57:26;102638.50;;;-0.86;91.09
10064;BME280;5071;52.360;13.134;2023-02-28T02:02:30;102644.09;;;-0.80;92.16
10064;BME280;5071;52.360;13.134;2023-02-28T02:07:35;102637.19;;;-0.79;91.73
10064;BME280;5071;52.360;13.134;2023-02-28T02:12:56;102633.78;;;-0.78;91.41
10064;BME280;5071;52.360;13.134;2023-02-28T02:18:08;102644.63;;;-0.85;91.52
10064;BME280;5071;52.360;13.134;2023-02-28T02:23:30;102644.63;;;-0.85;92.10
10064;BME280;5071;52.360;13.134;2023-02-28T02:28:46;102645.72;;;-0.95;92.53
10064;BME280;5071;52.360;13.134;2023-02-28T02:34:24;102638.91;;;-1.06;93.04
10064;BME280;5071;52.360;13.134;2023-02-28T02:39:32;102648.50;;;-1.05;93.21
10064;BME280;5071;52.360;13.134;2023-02-28T02:44:40;102640.69;;;-1.05;93.84
10064;BME280;5071;52.360;13.134;2023-02-28T02:49:47;102642.72;;;-1.14;93.40
10064;BME280;5071;52.360;13.134;2023-02-28T02:54:52;102644.41;;;-1.15;93.66
10064;BME280;5071;52.360;13.134;2023-02-28T02:59:57;102650.09;;;-1.34;94.08
10064;BME280;5071;52.360;13.134;2023-02-28T03:05:05;102644.84;;;-1.61;94.16
10064;BME280;5071;52.360;13.134;2023-02-28T03:10:31;102638.56;;;-1.89;94.98
10064;BME280;5071;52.360;13.134;2023-02-28T03:15:42;102629.97;;;-2.25;95.04
10064;BME280;5071;52.360;13.134;2023-02-28T03:20:56;102643.31;;;-2.21;96.42
10064;BME280;5071;52.360;13.134;2023-02-28T03:26:04;102640.91;;;-2.43;95.77
10064;BME280;5071;52.360;13.134;2023-02-28T03:31:12;102650.69;;;-2.76;96.14
10064;BME280;5071;52.360;13.134;2023-02-28T03:36:20;102662.69;;;-2.78;96.90
10064;BME280;5071;52.360;13.134;2023-02-28T03:41:26;102665.72;;;-2.95;96.25
10064;BME280;5071;52.360;13.134;2023-02-28T03:46:34;102661.78;;;-2.90;98.07
10064;BME280;5071;52.360;13.134;2023-02-28T03:51:41;102664.94;;;-2.94;98.05
10064;BME280;5071;52.360;13.134;2023-02-28T03:56:49;102668.22;;;-3.08;98.32
10064;BME280;5071;52.360;13.134;2023-02-28T04:01:53;102657.44;;;-3.37;97.80
10064;BME280;5071;52.360;13.134;2023-02-28T04:07:05;102671.91;;;-3.40;98.21
10064;BME280;5071;52.360;13.134;2023-02-28T04:12:08;102663.09;;;-3.42;98.94
10064;BME280;5071;52.360;13.134;2023-02-28T04:17:10;102652.88;;;-3.63;98.49
10064;BME280;5071;52.360;13.134;2023-02-28T04:22:14;102661.25;;;-3.55;99.07
10064;BME280;5071;52.360;13.134;2023-02-28T04:27:16;102661.69;;;-3.61;99.17
10064;BME280;5071;52.360;13.134;2023-02-28T04:32:18;102671.91;;;-3.86;98.74
10064;BME280;5071;52.360;13.134;2023-02-28T04:37:22;102675.69;;;-3.93;99.72
10064;BME280;5071;52.360;13.134;2023-02-28T04:42:24;102685.84;;;-3.96;99.87
10064;BME280;5071;52.360;13.134;2023-02-28T04:47:26;102682.56;;;-3.93;100.00
10064;BME280;5071;52.360;13.134;2023-02-28T04:52:30;102691.94;;;-4.17;99.95
10064;BME280;5071;52.360;13.134;2023-02-28T04:57:32;102689.72;;;-4.13;100.00
10064;BME280;5071;52.360;13.134;2023-02-28T05:02:34;102698.69;;;-4.19;100.00
10064;BME280;5071;52.360;13.134;2023-02-28T05:07:37;102694.50;;;-4.39;100.00
10064;BME280;5071;52.360;13.134;2023-02-28T05:12:39;102691.56;;;-4.44;100.00
10064;BME280;5071;52.360;13.134;2023-02-28T05:17:41;102692.13;;;-4.58;100.00
10064;BME280;5071;52.360;13.134;2023-02-28T05:22:45;102703.06;;;-4.40;100.00
10064;BME280;5071;52.360;13.134;2023-02-28T05:27:47;102695.75;;;-4.56;100.00
10064;BME280;5071;52.360;13.134;2023-02-28T05:32:50;102698.25;;;-4.68;100.00
10064;BME280;5071;52.360;13.134;2023-02-28T05:37:54;102707.59;;;-4.70;100.00
10064;BME280;5071;52.360;13.134;2023-02-28T05:42:56;102710.81;;;-4.62;100.00
10064;BME280;5071;52.360;13.134;2023-02-28T05:47:58;102714.34;;;-4.82;100.00
10064;BME280;5071;52.360;13.134;2023-02-28T05:53:02;102710.78;;;-4.95;100.00
10064;BME280;5071;52.360;13.134;2023-02-28T05:58:04;102708.59;;;-5.00;100.00
10064;BME280;5071;52.360;13.134;2023-02-28T06:03:06;102709.34;;;-5.01;100.00
10064;BME280;5071;52.360;13.134;2023-02-28T06:08:10;102718.19;;;-5.10;100.00
10064;BME280;5071;52.360;13.134;2023-02-28T06:13:12;102732.22;;;-4.75;100.00
10064;BME280;5071;52.360;13.134;2023-02-28T06:18:17;102725.59;;;-4.72;100.00
10064;BME280;5071;52.360;13.134;2023-02-28T06:23:20;102724.84;;;-4.81;100.00
10064;BME280;5071;52.360;13.134;2023-02-28T06:28:25;102740.59;;;-4.68;100.00
10064;BME280;5071;52.360;13.134;2023-02-28T06:33:28;102742.66;;;-4.53;100.00
10064;BME280;5071;52.360;13.134;2023-02-28T06:38:35;102747.97;;;-4.52;100.00
10064;BME280;5071;52.360;13.134;2023-02-28T06:43:40;102752.72;;;-4.46;100.00
10064;BME280;5071;52.360;13.134;2023-02-28T06:48:43;102751.44;;;-4.41;100.00
10064;BME280;5071;52.360;13.134;2023-02-28T06:53:46;102753.19;;;-4.30;100.00
10064;BME280;5071;52.360;13.134;2023-02-28T06:58:49;102763.91;;;-4.15;100.00
10064;BME280;5071;52.360;13.134;2023-02-28T07:03:51;102759.53;;;-4.04;100.00
10064;BME280;5071;52.360;13.134;2023-02-28T07:08:55;102758.66;;;-3.82;100.00
10064;BME280;5071;52.360;13.134;2023-02-28T07:13:57;102770.47;;;-3.64;100.00
10064;BME280;5071;52.360;13.134;2023-02-28T07:18:59;102769.66;;;-3.41;100.00
10064;BME280;5071;52.360;13.134;2023-02-28T07:24:03;102774.38;;;-3.13;100.00
10064;BME280;5071;52.360;13.134;2023-02-28T07:29:05;102771.13;;;-2.87;100.00
10064;BME280;5071;52.360;13.134;2023-02-28T07:34:07;102771.25;;;-2.50;100.00
10064;BME280;5071;52.360;13.134;2023-02-28T07:39:11;102767.50;;;-2.18;100.00
10064;BME280;5071;52.360;13.134;2023-02-28T07:44:14;102770.34;;;-1.78;100.00
10064;BME280;5071;52.360;13.134;2023-02-28T07:49:16;102763.06;;;-1.45;100.00
10064;BME280;5071;52.360;13.134;2023-02-28T07:54:19;102772.22;;;-1.00;99.68
10064;BME280;5071;52.360;13.134;2023-02-28T07:59:21;102770.97;;;-0.67;96.86
10064;BME280;5071;52.360;13.134;2023-02-28T08:04:22;102768.75;;;-0.34;94.87
10064;BME280;5071;52.360;13.134;2023-02-28T08:09:26;102772.47;;;-0.04;90.38
10064;BME280;5071;52.360;13.134;2023-02-28T08:14:29;102777.59;;;0.23;86.42
10064;BME280;5071;52.360;13.134;2023-02-28T08:19:31;102772.41;;;0.66;77.07
10064;BME280;5071;52.360;13.134;2023-02-28T08:24:38;102776.44;;;1.04;70.53
10064;BME280;5071;52.360;13.134;2023-02-28T08:29:40;102775.25;;;1.29;71.48
10064;BME280;5071;52.360;13.134;2023-02-28T08:34:42;102773.72;;;1.47;66.34
10064;BME280;5071;52.360;13.134;2023-02-28T08:39:45;102776.97;;;1.74;63.38
10064;BME280;5071;52.360;13.134;2023-02-28T08:44:48;102777.56;;;2.00;64.89
10064;BME280;5071;52.360;13.134;2023-02-28T08:49:50;102786.00;;;2.11;63.50
10064;BME280;5071;52.360;13.134;2023-02-28T08:54:53;102781.94;;;2.32;62.43
10064;BME280;5071;52.360;13.134;2023-02-28T08:59:56;102776.88;;;2.52;60.98
10064;BME280;5071;52.360;13.134;2023-02-28T09:04:57;102777.88;;;2.70;60.42
10064;BME280;5071;52.360;13.134;2023-02-28T09:10:01;102767.19;;;2.84;58.00
10064;BME280;5071;52.360;13.134;2023-02-28T09:15:04;102777.72;;;3.02;56.27
10064;BME280;5071;52.360;13.134;2023-02-28T09:20:08;102781.06;;;3.16;55.44
10064;BME280;5071;52.360;13.134;2023-02-28T09:25:12;102779.22;;;3.31;53.41
10064;BME280;5071;52.360;13.134;2023-02-28T09:30:14;102786.78;;;3.43;51.13
10064;BME280;5071;52.360;13.134;2023-02-28T09:35:17;102785.50;;;3.53;50.69
10064;BME280;5071;52.360;13.134;2023-02-28T09:40:22;102778.41;;;3.68;50.94
10064;BME280;5071;52.360;13.134;2023-02-28T09:45:28;102771.19;;;3.82;50.42
10064;BME280;5071;52.360;13.134;2023-02-28T09:50:35;102775.06;;;4.08;48.88
10064;BME280;5071;52.360;13.134;2023-02-28T09:55:44;102777.16;;;4.15;48.93
10064;BME280;5071;52.360;13.134;2023-02-28T10:00:54;102789.94;;;4.45;47.45
10064;BME280;5071;52.360;13.134;2023-02-28T10:06:06;102786.03;;;4.37;47.98
10064;BME280;5071;52.360;13.134;2023-02-28T10:11:16;102779.59;;;4.50;48.33
10064;BME280;5071;52.360;13.134;2023-02-28T10:16:24;102773.59;;;5.98;44.72
10064;BME280;5071;52.360;13.134;2023-02-28T10:21:31;102770.88;;;9.91;35.18
10064;BME280;5071;52.360;13.134;2023-02-28T10:26:37;102771.91;;;14.61;29.59
10064;BME280;5071;52.360;13.134;2023-02-28T10:31:39;102775.63;;;15.38;27.36
10064;BME280;5071;52.360;13.134;2023-02-28T10:36:42;102779.81;;;13.16;28.74
10064;BME280;5071;52.360;13.134;2023-02-28T10:41:46;102782.41;;;11.21;31.56
10064;BME280;5071;52.360;13.134;2023-02-28T10:46:52;102772.94;;;15.44;28.79
10064;BME280;5071;52.360;13.134;2023-02-28T10:51:56;102772.03;;;15.18;27.03
10064;BME280;5071;52.360;13.134;2023-02-28T10:57:23;102770.69;;;13.98;28.84
10064;BME280;5071;52.360;13.134;2023-02-28T11:02:33;102767.28;;;13.09;29.59
10064;BME280;5071;52.360;13.134;2023-02-28T11:07:37;102760.44;;;15.14;27.65
10064;BME280;5071;52.360;13.134;2023-02-28T11:12:58;102762.09;;;14.66;27.12
10064;BME280;5071;52.360;13.134;2023-02-28T11:18:14;102753.50;;;13.53;28.40
10064;BME280;5071;52.360;13.134;2023-02-28T11:23:21;102747.06;;;15.06;27.65
10064;BME280;5071;52.360;13.134;2023-02-28T11:28:30;102739.50;;;12.12;31.37
10064;BME280;5071;52.360;13.134;2023-02-28T11:33:41;102730.88;;;10.23;33.62
10064;BME280;5071;52.360;13.134;2023-02-28T11:38:43;102724.13;;;9.58;35.54
10064;BME280;5071;52.360;13.134;2023-02-28T11:43:58;102715.72;;;9.03;38.12
10064;BME280;5071;52.360;13.134;2023-02-28T11:49:14;102719.25;;;7.79;38.68
10064;BME280;5071;52.360;13.134;2023-02-28T11:54:35;102719.72;;;7.12;38.62
10064;BME280;5071;52.360;13.134;2023-02-28T11:59:55;102715.06;;;6.55;41.71
10064;BME280;5071;52.360;13.134;2023-02-28T12:05:10;102715.16;;;6.82;41.16
10064;BME280;5071;52.360;13.134;2023-02-28T12:10:21;102716.13;;;6.84;39.77
10064;BME280;5071;52.360;13.134;2023-02-28T12:20:55;102708.28;;;6.61;41.74
10064;BME280;5071;52.360;13.134;2023-02-28T12:26:08;102700.59;;;6.93;41.24
10064;BME280;5071;52.360;13.134;2023-02-28T12:31:20;102700.97;;;7.31;42.25
10064;BME280;5071;52.360;13.134;2023-02-28T12:36:23;102705.66;;;6.61;40.74
10064;BME280;5071;52.360;13.134;2023-02-28T12:41:34;102690.88;;;6.67;41.40
10064;BME280;5071;52.360;13.134;2023-02-28T12:46:42;102674.63;;;7.33;41.49
10064;BME280;5071;52.360;13.134;2023-02-28T12:51:47;102675.47;;;6.79;39.69
10064;BME280;5071;52.360;13.134;2023-02-28T12:56:54;102666.91;;;7.12;40.31
10064;BME280;5071;52.360;13.134;2023-02-28T13:02:30;102661.34;;;7.31;40.83
10064;BME280;5071;52.360;13.134;2023-02-28T13:08:10;102649.25;;;7.11;41.33
10064;BME280;5071;52.360;13.134;2023-02-28T13:13:21;102632.28;;;7.31;41.34
10064;BME280;5071;52.360;13.134;2023-02-28T13:18:30;102639.00;;;7.49;40.75
10064;BME280;5071;52.360;13.134;2023-02-28T13:23:40;102637.75;;;7.36;39.98
10064;BME280;5071;52.360;13.134;2023-02-28T13:34:31;102616.81;;;7.72;40.92
10064;BME280;5071;52.360;13.134;2023-02-28T13:39:49;102615.66;;;7.63;39.42
10064;BME280;5071;52.360;13.134;2023-02-28T13:45:22;102626.88;;;6.99;41.68
10064;BME280;5071;52.360;13.134;2023-02-28T13:50:31;102621.59;;;6.99;40.77
10064;BME280;5071;52.360;13.134;2023-02-28T13:55:37;102617.91;;;6.94;40.73
10064;BME280;5071;52.360;13.134;2023-02-28T14:06:25;102608.56;;;7.33;40.06
10064;BME280;5071;52.360;13.134;2023-02-28T14:11:33;102597.38;;;7.70;40.79
10064;BME280;5071;52.360;13.134;2023-02-28T14:16:39;102595.50;;;7.37;40.89
10064;BME280;5071;52.360;13.134;2023-02-28T14:21:52;102598.41;;;7.47;40.33
10064;BME280;5071;52.360;13.134;2023-02-28T14:27:12;102601.53;;;7.33;40.96
10064;BME280;5071;52.360;13.134;2023-02-28T14:32:23;102590.81;;;7.57;40.21
10064;BME280;5071;52.360;13.134;2023-02-28T14:37:32;102596.25;;;7.33;40.03
10064;BME280;5071;52.360;13.134;2023-02-28T14:42:36;102589.38;;;7.38;40.59
10064;BME280;5071;52.360;13.134;2023-02-28T14:47:38;102586.16;;;7.49;41.02
10064;BME280;5071;52.360;13.134;2023-02-28T14:52:43;102586.50;;;7.31;43.27
10064;BME280;5071;52.360;13.134;2023-02-28T14:57:51;102581.75;;;7.20;41.85
10064;BME280;5071;52.360;13.134;2023-02-28T15:02:54;102581.84;;;7.83;41.40
10064;BME280;5071;52.360;13.134;2023-02-28T15:08:05;102581.84;;;7.52;40.27
10064;BME280;5071;52.360;13.134;2023-02-28T15:13:11;102578.69;;;7.35;40.76
10064;BME280;5071;52.360;13.134;2023-02-28T15:18:23;102580.53;;;7.67;41.68
10064;BME280;5071;52.360;13.134;2023-02-28T15:23:31;102579.34;;;6.99;41.18
10064;BME280;5071;52.360;13.134;2023-02-28T15:28:36;102577.41;;;6.67;42.00
10064;BME280;5071;52.360;13.134;2023-02-28T15:33:52;102572.34;;;6.47;42.92
10064;BME280;5071;52.360;13.134;2023-02-28T15:38:56;102568.19;;;6.02;43.90
10064;BME280;5071;52.360;13.134;2023-02-28T15:44:25;102563.59;;;5.97;43.67
10064;BME280;5071;52.360;13.134;2023-02-28T15:49:28;102569.09;;;5.80;44.28
10064;BME280;5071;52.360;13.134;2023-02-28T15:54:35;102569.97;;;5.57;44.59
10064;BME280;5071;52.360;13.134;2023-02-28T15:59:38;102568.91;;;5.52;44.05
10064;BME280;5071;52.360;13.134;2023-02-28T16:04:55;102569.63;;;5.25;46.50
10064;BME280;5071;52.360;13.134;2023-02-28T16:09:59;102570.28;;;4.97;47.27
10064;BME280;5071;52.360;13.134;2023-02-28T16:15:06;102585.22;;;4.75;47.56
10064;BME280;5071;52.360;13.134;2023-02-28T16:20:13;102587.47;;;4.45;49.29
10064;BME280;5071;52.360;13.134;2023-02-28T16:25:19;102586.88;;;4.12;49.08
10064;BME280;5071;52.360;13.134;2023-02-28T16:30:23;102584.63;;;3.80;51.14
10064;BME280;5071;52.360;13.134;2023-02-28T16:35:26;102582.81;;;3.60;52.98
10064;BME280;5071;52.360;13.134;2023-02-28T16:40:33;102578.47;;;3.23;54.24
10064;BME280;5071;52.360;13.134;2023-02-28T16:45:35;102594.22;;;2.87;54.01
10064;BME280;5071;52.360;13.134;2023-02-28T16:50:38;102590.88;;;2.53;55.53
10064;BME280;5071;52.360;13.134;2023-02-28T16:55:41;102591.00;;;2.22;55.06
10064;BME280;5071;52.360;13.134;2023-02-28T17:00:43;102583.25;;;1.91;56.67
10064;BME280;5071;52.360;13.134;2023-02-28T17:05:45;102584.00;;;1.72;58.99
10064;BME280;5071;52.360;13.134;2023-02-28T17:10:49;102590.84;;;1.53;58.56
10064;BME280;5071;52.360;13.134;2023-02-28T17:15:51;102606.28;;;1.32;61.01
10064;BME280;5071;52.360;13.134;2023-02-28T17:20:54;102600.78;;;0.96;63.55
10064;BME280;5071;52.360;13.134;2023-02-28T17:25:57;102608.56;;;0.65;62.92
10064;BME280;5071;52.360;13.134;2023-02-28T17:30:59;102609.56;;;0.37;63.61
10064;BME280;5071;52.360;13.134;2023-02-28T17:36:02;102616.22;;;0.17;64.72
10064;BME280;5071;52.360;13.134;2023-02-28T17:41:05;102609.25;;;0.03;65.48
10064;BME280;5071;52.360;13.134;2023-02-28T17:46:14;102606.56;;;0.02;68.92
10064;BME280;5071;52.360;13.134;2023-02-28T17:51:22;102617.47;;;-0.19;68.54
10064;BME280;5071;52.360;13.134;2023-02-28T17:56:26;102613.97;;;-0.48;70.10
10064;BME280;5071;52.360;13.134;2023-02-28T18:01:29;102620.41;;;-0.56;71.78
10064;BME280;5071;52.360;13.134;2023-02-28T18:06:34;102631.28;;;-0.76;71.47
10064;BME280;5071;52.360;13.134;2023-02-28T18:11:39;102612.47;;;-0.99;71.63
10064;BME280;5071;52.360;13.134;2023-02-28T18:16:41;102627.28;;;-1.11;72.78
10064;BME280;5071;52.360;13.134;2023-02-28T18:21:45;102620.47;;;-1.23;73.61
10064;BME280;5071;52.360;13.134;2023-02-28T18:26:49;102624.16;;;-1.32;73.98
10064;BME280;5071;52.360;13.134;2023-02-28T18:31:53;102626.38;;;-1.39;74.77
10064;BME280;5071;52.360;13.134;2023-02-28T18:36:56;102621.53;;;-1.59;75.65
10064;BME280;5071;52.360;13.134;2023-02-28T18:41:59;102624.19;;;-1.71;75.06
10064;BME280;5071;52.360;13.134;2023-02-28T18:47:01;102632.69;;;-1.73;76.42
10064;BME280;5071;52.360;13.134;2023-02-28T18:52:06;102633.81;;;-1.70;77.54
10064;BME280;5071;52.360;13.134;2023-02-28T18:57:16;102629.16;;;-1.87;77.73
10064;BME280;5071;52.360;13.134;2023-02-28T19:02:18;102629.47;;;-2.08;77.70
10064;BME280;5071;52.360;13.134;2023-02-28T19:07:20;102641.97;;;-2.16;78.29
10064;BME280;5071;52.360;13.134;2023-02-28T19:12:25;102633.81;;;-2.20;79.89
10064;BME280;5071;52.360;13.134;2023-02-28T19:17:27;102624.78;;;-2.25;79.82
10064;BME280;5071;52.360;13.134;2023-02-28T19:22:29;102646.78;;;-2.45;79.61
10064;BME280;5071;52.360;13.134;2023-02-28T19:27:36;102637.53;;;-2.42;80.88
10064;BME280;5071;52.360;13.134;2023-02-28T19:32:38;102631.50;;;-2.41;81.83
10064;BME280;5071;52.360;13.134;2023-02-28T19:37:41;102652.03;;;-2.57;81.30
10064;BME280;5071;52.360;13.134;2023-02-28T19:42:44;102651.81;;;-2.72;82.93
10064;BME280;5071;52.360;13.134;2023-02-28T19:47:46;102656.22;;;-3.06;82.32
10064;BME280;5071;52.360;13.134;2023-02-28T19:52:48;102661.53;;;-3.05;83.17
10064;BME280;5071;52.360;13.134;2023-02-28T19:57:51;102660.84;;;-3.02;83.87
10064;BME280;5071;52.360;13.134;2023-02-28T20:02:54;102646.28;;;-3.24;83.82
10064;BME280;5071;52.360;13.134;2023-02-28T20:07:57;102655.53;;;-3.16;85.11
10064;BME280;5071;52.360;13.134;2023-02-28T20:13:00;102658.34;;;-3.36;84.24
10064;BME280;5071;52.360;13.134;2023-02-28T20:18:02;102652.94;;;-3.27;85.57
10064;BME280;5071;52.360;13.134;2023-02-28T20:23:05;102644.84;;;-3.32;85.67
10064;BME280;5071;52.360;13.134;2023-02-28T20:28:08;102652.94;;;-3.39;86.63
10064;BME280;5071;52.360;13.134;2023-02-28T20:33:10;102651.81;;;-3.43;86.00
10064;BME280;5071;52.360;13.134;2023-02-28T20:38:16;102644.47;;;-3.25;86.38
10064;BME280;5071;52.360;13.134;2023-02-28T20:43:20;102636.81;;;-3.23;85.92
10064;BME280;5071;52.360;13.134;2023-02-28T20:48:22;102641.88;;;-3.25;86.13
10064;BME280;5071;52.360;13.134;2023-02-28T20:53:26;102642.56;;;-3.16;86.00
10064;BME280;5071;52.360;13.134;2023-02-28T20:58:31;102644.25;;;-3.16;86.10
10064;BME280;5071;52.360;13.134;2023-02-28T21:03:34;102641.75;;;-3.38;84.99
10064;BME280;5071;52.360;13.134;2023-02-28T21:08:37;102639.66;;;-3.32;86.21
10064;BME280;5071;52.360;13.134;2023-02-28T21:13:41;102618.97;;;-3.42;85.96
10064;BME280;5071;52.360;13.134;2023-02-28T21:18:44;102625.59;;;-3.58;86.70
10064;BME280;5071;52.360;13.134;2023-02-28T21:23:46;102620.97;;;-3.50;87.31
10064;BME280;5071;52.360;13.134;2023-02-28T21:28:50;102616.56;;;-3.63;87.23
10064;BME280;5071;52.360;13.134;2023-02-28T21:33:54;102618.38;;;-3.62;86.04
10064;BME280;5071;52.360;13.134;2023-02-28T21:38:59;102636.25;;;-3.88;86.80
10064;BME280;5071;52.360;13.134;2023-02-28T21:44:03;102637.50;;;-3.83;88.14
10064;BME280;5071;52.360;13.134;2023-02-28T21:49:05;102636.47;;;-3.85;88.30
10064;BME280;5071;52.360;13.134;2023-02-28T21:54:08;102635.03;;;-3.82;88.60
10064;BME280;5071;52.360;13.134;2023-02-28T21:59:12;102637.03;;;-3.89;88.15
10064;BME280;5071;52.360;13.134;2023-02-28T22:04:16;102642.84;;;-4.04;88.99
10064;BME280;5071;52.360;13.134;2023-02-28T22:09:18;102642.13;;;-4.13;88.61
10064;BME280;5071;52.360;13.134;2023-02-28T22:14:22;102652.28;;;-4.16;89.49
10064;BME280;5071;52.360;13.134;2023-02-28T22:19:25;102651.72;;;-4.34;88.42
10064;BME280;5071;52.360;13.134;2023-02-28T22:24:29;102656.19;;;-4.21;90.20
10064;BME280;5071;52.360;13.134;2023-02-28T22:29:33;102653.41;;;-4.35;88.52
10064;BME280;5071;52.360;13.134;2023-02-28T22:34:35;102655.53;;;-4.41;89.78
10064;BME280;5071;52.360;13.134;2023-02-28T22:39:37;102652.34;;;-4.48;90.22
10064;BME280;5071;52.360;13.134;2023-02-28T22:44:41;102656.47;;;-4.51;90.16
10064;BME280;5071;52.360;13.134;2023-02-28T22:49:43;102651.88;;;-4.65;90.48
10064;BME280;5071;52.360;13.134;2023-02-28T22:54:48;102666.94;;;-4.49;90.98
10064;BME280;5071;52.360;13.134;2023-02-28T22:59:52;102669.00;;;-4.45;90.52
10064;BME280;5071;52.360;13.134;2023-02-28T23:04:54;102665.44;;;-4.57;90.28
10064;BME280;5071;52.360;13.134;2023-02-28T23:09:56;102660.81;;;-4.61;90.86
10064;BME280;5071;52.360;13.134;2023-02-28T23:14:59;102673.56;;;-4.75;90.33
10064;BME280;5071;52.360;13.134;2023-02-28T23:20:02;102681.09;;;-4.88;90.04
10064;BME280;5071;52.360;13.134;2023-02-28T23:25:05;102683.66;;;-4.78;91.12
10064;BME280;5071;52.360;13.134;2023-02-28T23:30:13;102694.38;;;-4.73;91.29
10064;BME280;5071;52.360;13.134;2023-02-28T23:35:15;102691.63;;;-4.97;91.78
10064;BME280;5071;52.360;13.134;2023-02-28T23:40:18;102692.13;;;-4.91;91.69
10064;BME280;5071;52.360;13.134;2023-02-28T23:45:21;102690.47;;;-5.11;91.51
10064;BME280;5071;52.360;13.134;2023-02-28T23:50:23;102684.03;;;-5.16;92.43
10064;BME280;5071;52.360;13.134;2023-02-28T23:55:25;102670.69;;;-5.10;92.28
